Archival Weather

Chicago O'Hare International

Chicago, Illinois (KORD)

Report from: Friday, December 2, 2022 4:51 AM CST
Current time: Friday, June 21, 2024 3:34 AM CDT

Current weather – Weather history – Daily summaries
Weather forecast

Temperature3.3°C (37.9°F)
Wind chill-0.9°C (30.5°F)
Dew point-6.1°C (21.0°F)
Winds 10 kts (5.1 m/s, 11.5 mph) South (190°)
Visibility10 mi. (16.1 km)
Clouds Ceiling: Overcast 4,300 ft. (1,311 m)
Altimeter30.03 in.Hg (1017 mB)
Relative humidity50 %
Density altitude-1,504 ft. (-458 m)
Sea-level pressure101.8 kPa (1018 mB, 30.05 in.Hg)
Remarks Automated weather observing station with precipitation discriminator
Flight conditions Visual Meteorological Conditions
Raw dataKORD 021051Z 19010KT 10SM OVC043 03/M06 A3003 RMK AO2 SLP176 T00331061
An error has occurred. This application may no longer respond until reloaded. Reload 🗙